createdAt,value
2023-04-29T00:01:02.204Z,10.88
2023-04-29T00:02:23.863Z,10.40
2023-04-29T00:03:49.649Z,11.40
2023-04-29T00:05:15.135Z,10.18
2023-04-29T00:06:38.044Z,9.90
2023-04-29T00:08:00.912Z,10.80
2023-04-29T00:09:30.840Z,11.00
2023-04-29T00:10:52.459Z,9.45
2023-04-29T00:12:18.609Z,10.43
2023-04-29T00:13:43.134Z,10.35
2023-04-29T00:15:06.594Z,10.18
2023-04-29T00:16:30.721Z,9.93
2023-04-29T00:17:52.334Z,10.55
2023-04-29T00:20:40.557Z,10.38
2023-04-29T00:22:03.689Z,10.35
2023-04-29T00:23:24.897Z,10.50
2023-04-29T00:24:47.332Z,10.48
2023-04-29T00:26:10.048Z,10.10
2023-04-29T00:27:33.856Z,11.40
2023-04-29T00:28:56.487Z,9.90
2023-04-29T00:30:20.655Z,9.95
2023-04-29T00:31:43.156Z,11.50
2023-04-29T00:33:12.929Z,10.95
2023-04-29T00:34:39.063Z,9.73
2023-04-29T00:36:26.009Z,11.25
2023-04-29T00:37:48.549Z,10.35
2023-04-29T00:39:09.858Z,10.93
2023-04-29T00:40:32.551Z,11.65
2023-04-29T00:41:55.435Z,12.05
2023-04-29T00:43:19.382Z,12.65
2023-04-29T00:44:42.432Z,12.13
2023-04-29T00:46:07.249Z,12.27
2023-04-29T00:47:29.800Z,12.85
2023-04-29T00:48:54.581Z,12.15
2023-04-29T00:50:17.337Z,12.20
2023-04-29T00:51:41.225Z,12.68
2023-04-29T00:53:04.455Z,11.35
2023-04-29T00:54:27.254Z,12.35
2023-04-29T00:55:55.848Z,11.20
2023-04-29T00:57:19.905Z,12.52
2023-04-29T00:58:50.331Z,13.82
2023-04-29T01:00:14.175Z,12.70
2023-04-29T01:01:40.257Z,12.50
2023-04-29T01:03:03.083Z,13.20
2023-04-29T01:04:24.880Z,13.00
2023-04-29T01:06:00.195Z,12.82
2023-04-29T01:07:31.710Z,12.68
2023-04-29T01:09:05.165Z,12.32
2023-04-29T01:10:32.833Z,12.98
2023-04-29T01:12:07.025Z,12.77
2023-04-29T01:13:35.672Z,12.40
2023-04-29T01:15:07.220Z,13.30
2023-04-29T01:16:36.171Z,13.25
2023-04-29T01:18:07.345Z,13.23
2023-04-29T01:19:45.922Z,13.63
2023-04-29T01:21:08.341Z,13.38
2023-04-29T01:22:33.713Z,12.70
2023-04-29T01:23:57.487Z,13.98
2023-04-29T01:25:25.259Z,12.52
2023-04-29T01:28:52.319Z,13.70
2023-04-29T01:30:29.142Z,13.32
2023-04-29T01:32:11.108Z,13.38
2023-04-29T01:33:42.926Z,12.30
2023-04-29T01:36:57.810Z,12.00
2023-04-29T01:38:34.092Z,12.77
2023-04-29T01:40:06.907Z,12.95
2023-04-29T01:41:44.593Z,13.80
2023-04-29T01:43:16.509Z,12.38
2023-04-29T01:44:44.484Z,12.95
2023-04-29T01:46:12.924Z,14.20
2023-04-29T01:47:37.932Z,14.70
2023-04-29T01:49:03.742Z,14.20
2023-04-29T01:50:29.235Z,13.02
2023-04-29T01:51:57.860Z,14.10
2023-04-29T01:53:21.493Z,13.80
2023-04-29T01:54:44.690Z,13.77
2023-04-29T01:56:12.662Z,13.85
2023-04-29T01:57:55.040Z,13.82
2023-04-29T01:59:44.216Z,13.98
2023-04-29T02:01:29.690Z,13.63
2023-04-29T02:02:52.804Z,13.27
2023-04-29T02:04:33.912Z,14.15
2023-04-29T02:05:58.286Z,13.90
2023-04-29T02:07:30.852Z,14.10
2023-04-29T02:08:54.205Z,14.50
2023-04-29T02:10:18.609Z,13.70
2023-04-29T02:11:48.660Z,15.07
2023-04-29T02:13:12.485Z,13.88
2023-04-29T02:14:45.424Z,13.73
2023-04-29T02:16:12.061Z,14.77
2023-04-29T02:17:41.464Z,13.55
2023-04-29T02:19:04.440Z,14.63
2023-04-29T02:20:26.679Z,15.10
2023-04-29T02:21:49.977Z,14.57
2023-04-29T02:23:12.732Z,15.05
2023-04-29T02:25:57.199Z,14.20
2023-04-29T02:27:24.501Z,13.75
2023-04-29T02:28:47.509Z,13.60
2023-04-29T02:30:14.668Z,13.98
2023-04-29T02:31:36.465Z,13.90
2023-04-29T02:34:21.600Z,14.43
2023-04-29T02:35:48.048Z,15.13
2023-04-29T02:37:11.893Z,14.93
2023-04-29T02:38:34.278Z,14.18
2023-04-29T02:40:01.660Z,14.95
2023-04-29T02:41:25.938Z,14.00
2023-04-29T02:42:49.966Z,14.77
2023-04-29T02:44:11.415Z,13.75
2023-04-29T02:45:33.785Z,14.05
2023-04-29T02:50:13.299Z,12.68
2023-04-29T02:51:43.049Z,13.82
2023-04-29T02:53:09.402Z,13.05
2023-04-29T02:54:33.197Z,13.40
2023-04-29T02:56:12.843Z,12.48
2023-04-29T02:57:34.343Z,12.48
2023-04-29T02:59:05.532Z,11.70
2023-04-29T03:00:52.953Z,13.32
2023-04-29T03:02:40.605Z,11.80
2023-04-29T03:05:49.082Z,11.38
2023-04-29T03:07:11.897Z,12.25
2023-04-29T03:08:37.817Z,12.20
2023-04-29T03:10:57.121Z,11.25
2023-04-29T03:12:19.345Z,11.35
2023-04-29T03:13:42.317Z,12.00
2023-04-29T03:15:13.228Z,11.57
2023-04-29T03:18:26.920Z,12.07
2023-04-29T03:19:54.730Z,10.82
2023-04-29T03:21:18.086Z,12.60
2023-04-29T03:22:40.205Z,12.40
2023-04-29T03:24:19.246Z,11.85
2023-04-29T03:25:44.535Z,11.00
2023-04-29T03:27:48.534Z,10.88
2023-04-29T03:29:44.879Z,11.77
2023-04-29T03:31:19.367Z,10.50
2023-04-29T03:32:42.500Z,11.10
2023-04-29T03:34:04.910Z,11.45
2023-04-29T03:35:30.761Z,12.68
2023-04-29T03:43:13.410Z,12.05
2023-04-29T03:44:37.226Z,11.25
2023-04-29T03:46:00.283Z,12.52
2023-04-29T03:47:23.321Z,11.48
2023-04-29T03:48:46.130Z,11.48
2023-04-29T03:50:09.289Z,11.40
2023-04-29T03:51:33.535Z,10.95
2023-04-29T03:53:44.200Z,11.20
2023-04-29T03:55:22.801Z,11.48
2023-04-29T03:57:03.772Z,11.77
2023-04-29T03:58:28.560Z,11.88
2023-04-29T04:00:08.463Z,11.73
2023-04-29T04:01:57.936Z,11.43
2023-04-29T04:03:26.016Z,11.95
2023-04-29T04:05:06.680Z,11.73
2023-04-29T04:06:46.022Z,12.23
2023-04-29T04:08:10.073Z,11.43
2023-04-29T04:09:31.464Z,12.07
2023-04-29T04:10:54.251Z,10.90
2023-04-29T04:13:37.785Z,12.15
2023-04-29T04:18:30.888Z,11.70
2023-04-29T04:25:47.673Z,11.85
2023-04-29T04:27:44.127Z,11.68
2023-04-29T04:29:35.176Z,11.55
2023-04-29T04:31:35.443Z,12.27
2023-04-29T04:33:49.955Z,11.73
2023-04-29T04:35:30.811Z,11.05
2023-04-29T04:43:37.345Z,10.88
2023-04-29T04:45:14.929Z,10.88
2023-04-29T04:50:13.400Z,12.05
2023-04-29T04:54:14.025Z,11.95
2023-04-29T04:56:46.260Z,11.63
2023-04-29T04:58:40.245Z,11.80
2023-04-29T05:00:52.398Z,13.00
2023-04-29T05:02:19.868Z,10.95
2023-04-29T05:04:11.580Z,11.65
2023-04-29T05:13:00.705Z,11.77
2023-04-29T05:24:40.133Z,12.18
2023-04-29T05:31:00.518Z,11.63
2023-04-29T05:32:25.751Z,11.38
2023-04-29T05:48:30.335Z,11.73
2023-04-29T05:49:55.285Z,11.38
2023-04-29T05:51:19.858Z,12.07
2023-04-29T05:53:47.362Z,11.88
2023-04-29T05:55:02.907Z,12.02
2023-04-29T05:56:28.055Z,11.63
2023-04-29T05:57:53.058Z,11.35
2023-04-29T06:02:23.965Z,11.85
2023-04-29T06:03:46.882Z,11.67
2023-04-29T06:05:31.788Z,10.57
2023-04-29T06:07:17.720Z,10.95
2023-04-29T06:08:45.880Z,11.30
2023-04-29T06:10:16.377Z,12.00
2023-04-29T06:11:58.419Z,10.93
2023-04-29T06:13:48.507Z,10.45
2023-04-29T06:15:29.889Z,10.80
2023-04-29T06:16:52.988Z,11.02
2023-04-29T06:18:23.598Z,10.45
2023-04-29T06:20:11.904Z,11.18
2023-04-29T06:21:53.984Z,11.27
2023-04-29T06:23:15.745Z,10.65
2023-04-29T06:24:41.266Z,11.93
2023-04-29T06:26:07.746Z,10.88
2023-04-29T06:27:36.714Z,11.45
2023-04-29T06:29:12.565Z,10.57
2023-04-29T06:30:57.468Z,11.10
2023-04-29T06:33:12.594Z,11.32
2023-04-29T06:34:41.003Z,11.90
2023-04-29T06:37:36.408Z,10.60
2023-04-29T06:39:19.780Z,11.20
2023-04-29T06:41:04.805Z,13.00
2023-04-29T06:44:11.011Z,12.27
2023-04-29T06:46:34.296Z,12.68
2023-04-29T06:49:18.513Z,11.93
2023-04-29T06:56:47.630Z,14.25
2023-04-29T06:58:24.088Z,16.38
2023-04-29T07:00:11.093Z,16.80
2023-04-29T07:04:51.652Z,14.82
2023-04-29T07:06:24.999Z,16.50
2023-04-29T07:07:57.922Z,15.02
2023-04-29T07:09:29.705Z,14.15
2023-04-29T07:11:28.811Z,16.48
2023-04-29T07:12:56.902Z,16.17
2023-04-29T07:14:31.724Z,16.65
2023-04-29T07:18:21.446Z,15.60
2023-04-29T07:29:50.283Z,14.50
2023-04-29T07:31:29.945Z,13.07
2023-04-29T07:33:49.697Z,15.80
2023-04-29T07:35:18.983Z,15.55
2023-04-29T07:36:52.208Z,17.10
2023-04-29T07:38:15.931Z,16.65
2023-04-29T07:39:49.645Z,15.75
2023-04-29T07:41:17.040Z,17.60
2023-04-29T07:42:42.828Z,17.83
2023-04-29T07:44:20.123Z,16.63
2023-04-29T07:45:53.027Z,15.65
2023-04-29T07:47:38.811Z,15.20
2023-04-29T07:49:03.726Z,16.25
2023-04-29T07:56:54.986Z,14.13
2023-04-29T07:58:43.832Z,14.40
2023-04-29T08:00:29.140Z,14.57
2023-04-29T08:02:05.446Z,16.20
2023-04-29T08:03:39.887Z,13.10
2023-04-29T08:06:10.751Z,17.02
2023-04-29T08:10:32.169Z,14.23
2023-04-29T08:34:59.538Z,14.00
2023-04-29T09:07:08.896Z,12.52
2023-04-29T09:10:54.899Z,13.93
2023-04-29T09:12:20.998Z,14.52
2023-04-29T09:13:44.938Z,12.43
2023-04-29T09:15:47.220Z,17.13
2023-04-29T09:17:51.189Z,14.32
2023-04-29T09:23:10.629Z,17.75
2023-04-29T09:25:13.435Z,22.35
2023-04-29T09:32:54.960Z,16.63
2023-04-29T09:43:05.352Z,11.70
2023-04-29T09:45:09.740Z,10.88
2023-04-29T09:46:45.496Z,12.98
2023-04-29T09:48:45.129Z,11.80
2023-04-29T09:50:19.941Z,13.35
2023-04-29T09:52:05.335Z,14.48
2023-04-29T09:53:38.184Z,13.10
2023-04-29T09:55:09.312Z,12.60
2023-04-29T09:56:57.023Z,12.13
2023-04-29T09:58:51.614Z,12.18
2023-04-29T10:00:59.714Z,13.00
2023-04-29T10:03:25.940Z,11.88
2023-04-29T10:07:39.144Z,12.35
2023-04-29T10:10:05.855Z,9.43
2023-04-29T10:12:26.224Z,8.18
2023-04-29T10:14:27.714Z,9.85
2023-04-29T10:16:12.026Z,11.20
2023-04-29T10:17:49.618Z,10.93
2023-04-29T10:19:50.852Z,10.50
2023-04-29T10:22:48.754Z,12.65
2023-04-29T10:25:26.462Z,9.35
2023-04-29T10:26:54.202Z,8.90
2023-04-29T10:28:49.200Z,7.72
2023-04-29T10:30:16.854Z,6.43
2023-04-29T10:31:42.844Z,6.18
2023-04-29T10:33:10.128Z,5.82
2023-04-29T10:34:40.488Z,5.88
2023-04-29T10:36:14.171Z,6.15
2023-04-29T10:38:09.219Z,5.28
2023-04-29T10:39:53.998Z,5.72
2023-04-29T10:41:29.624Z,4.70
2023-04-29T10:43:15.104Z,5.13
2023-04-29T10:45:30.573Z,4.57
2023-04-29T10:47:34.539Z,5.05
2023-04-29T10:49:23.068Z,4.80
2023-04-29T10:51:23.808Z,4.72
2023-04-29T10:53:04.242Z,5.28
2023-04-29T10:54:59.499Z,4.40
2023-04-29T10:56:57.142Z,4.10
2023-04-29T10:59:43.762Z,3.83
2023-04-29T11:01:48.728Z,3.97
2023-04-29T11:04:04.159Z,4.65
2023-04-29T11:08:41.478Z,4.88
2023-04-29T11:10:52.851Z,4.75
2023-04-29T11:14:39.357Z,5.07
2023-04-29T11:17:20.871Z,4.35
2023-04-29T11:19:20.957Z,4.13
2023-04-29T11:21:17.936Z,5.03
2023-04-29T11:23:03.067Z,4.68
2023-04-29T11:24:44.054Z,5.20
2023-04-29T11:26:14.675Z,4.38
2023-04-29T11:27:58.713Z,4.13
2023-04-29T11:29:39.076Z,4.43
2023-04-29T11:31:03.923Z,5.03
2023-04-29T11:32:27.831Z,4.50
2023-04-29T11:34:22.218Z,4.75
2023-04-29T11:36:55.149Z,4.35
2023-04-29T11:40:12.182Z,4.38
2023-04-29T11:43:44.037Z,3.75
2023-04-29T11:45:10.475Z,4.65
2023-04-29T11:46:37.203Z,4.43
2023-04-29T11:48:18.517Z,3.97
2023-04-29T11:49:43.098Z,4.10
2023-04-29T11:51:10.662Z,3.60
2023-04-29T11:52:40.969Z,4.47
2023-04-29T11:54:36.341Z,3.75
2023-04-29T11:58:27.755Z,3.97
2023-04-29T12:00:16.958Z,3.30
2023-04-29T12:01:44.874Z,3.60
2023-04-29T12:47:04.989Z,6.53
2023-04-29T12:56:43.026Z,5.43
2023-04-29T13:16:28.855Z,3.75
2023-04-29T13:18:16.941Z,3.20
2023-04-29T13:20:23.309Z,3.40
2023-04-29T13:22:29.878Z,3.13
2023-04-29T13:45:52.286Z,3.00
2023-04-29T13:51:00.968Z,3.67
2023-04-29T13:52:58.358Z,3.83
2023-04-29T13:56:11.575Z,4.07
2023-04-29T14:07:04.851Z,4.30
2023-04-29T14:08:53.479Z,3.03
2023-04-29T14:10:46.431Z,2.75
2023-04-29T14:12:46.417Z,4.15
2023-04-29T14:17:36.912Z,3.03
2023-04-29T14:19:22.695Z,3.30
2023-04-29T14:20:57.213Z,3.53
2023-04-29T14:22:41.758Z,3.15
2023-04-29T14:24:29.980Z,2.80
2023-04-29T14:26:39.058Z,2.22
2023-04-29T14:28:22.006Z,2.78
2023-04-29T14:29:54.107Z,3.20
2023-04-29T14:31:29.757Z,3.60
2023-04-29T14:33:14.107Z,4.20
2023-04-29T14:34:41.977Z,4.78
2023-04-29T14:36:08.652Z,4.28
2023-04-29T14:38:02.047Z,4.43
2023-04-29T14:39:38.654Z,4.60
2023-04-29T14:43:18.436Z,6.55
2023-04-29T14:44:46.622Z,6.18
2023-04-29T14:46:34.996Z,6.30
2023-04-29T14:48:02.271Z,6.22
2023-04-29T14:51:14.537Z,6.28
2023-04-29T14:52:41.235Z,6.57
2023-04-29T14:54:16.953Z,6.25
2023-04-29T14:56:01.631Z,7.10
2023-04-29T14:57:36.157Z,7.25
2023-04-29T14:59:09.969Z,6.90
2023-04-29T15:00:42.796Z,7.05
2023-04-29T15:02:11.882Z,7.15
2023-04-29T15:03:44.323Z,7.78
2023-04-29T15:05:08.060Z,7.18
2023-04-29T15:06:41.753Z,8.07
2023-04-29T15:08:09.584Z,7.15
2023-04-29T15:10:09.639Z,8.02
2023-04-29T15:11:38.313Z,8.40
2023-04-29T15:13:02.287Z,7.90
2023-04-29T15:14:33.826Z,8.20
2023-04-29T15:15:56.433Z,8.30
2023-04-29T15:17:20.045Z,8.75
2023-04-29T15:19:02.704Z,8.20
2023-04-29T15:20:39.868Z,7.50
2023-04-29T15:22:10.631Z,7.90
2023-04-29T15:23:33.681Z,6.93
2023-04-29T15:25:36.187Z,5.28
2023-04-29T15:27:21.702Z,4.07
2023-04-29T15:28:58.549Z,3.80
2023-04-29T15:30:37.461Z,3.03
2023-04-29T15:32:28.682Z,3.42
2023-04-29T15:33:55.107Z,3.80
2023-04-29T15:35:17.670Z,4.63
2023-04-29T15:36:43.183Z,5.20
2023-04-29T15:38:10.336Z,5.45
2023-04-29T15:39:36.333Z,5.97
2023-04-29T15:42:24.397Z,6.32
2023-04-29T15:43:26.875Z,5.70
2023-04-29T15:44:55.136Z,6.50
2023-04-29T15:46:45.620Z,6.15
2023-04-29T15:48:33.415Z,6.20
2023-04-29T15:52:42.287Z,5.57
2023-04-29T15:54:14.546Z,5.65
2023-04-29T16:00:45.159Z,7.45
2023-04-29T16:02:25.096Z,7.68
2023-04-29T16:03:52.597Z,8.68
2023-04-29T16:05:31.937Z,9.45
2023-04-29T16:07:11.817Z,7.93
2023-04-29T16:08:40.045Z,8.57
2023-04-29T16:10:13.903Z,9.15
2023-04-29T16:13:00.127Z,9.25
2023-04-29T16:14:24.356Z,9.10
2023-04-29T16:15:48.861Z,9.18
2023-04-29T16:18:00.707Z,9.98
2023-04-29T16:21:39.669Z,9.07
2023-04-29T16:23:17.839Z,9.20
2023-04-29T16:31:39.673Z,8.60
2023-04-29T16:36:04.451Z,9.50
2023-04-29T16:37:41.925Z,9.02
2023-04-29T16:39:16.179Z,10.60
2023-04-29T16:40:45.461Z,9.90
2023-04-29T16:42:36.874Z,10.38
2023-04-29T16:44:15.359Z,9.85
2023-04-29T16:46:44.339Z,9.82
2023-04-29T16:48:21.830Z,9.65
2023-04-29T16:50:15.915Z,10.40
2023-04-29T16:51:52.915Z,9.32
2023-04-29T16:53:16.851Z,11.55
2023-04-29T16:54:45.499Z,9.80
2023-04-29T16:56:51.001Z,10.63
2023-04-29T17:00:28.815Z,10.68
2023-04-29T17:04:45.554Z,10.02
2023-04-29T17:06:19.790Z,11.18
2023-04-29T17:08:09.174Z,9.88
2023-04-29T17:09:44.811Z,11.00
2023-04-29T17:11:29.482Z,9.98
2023-04-29T17:14:08.250Z,10.85
2023-04-29T17:16:24.446Z,9.60
2023-04-29T17:18:07.218Z,9.23
2023-04-29T17:19:32.506Z,8.00
2023-04-29T17:20:56.877Z,7.90
2023-04-29T17:22:24.095Z,8.35
2023-04-29T17:23:46.675Z,7.68
2023-04-29T17:25:26.228Z,8.32
2023-04-29T17:27:01.948Z,7.50
2023-04-29T17:28:32.579Z,7.13
2023-04-29T17:30:02.715Z,7.53
2023-04-29T17:31:45.493Z,6.90
2023-04-29T17:33:17.919Z,6.40
2023-04-29T17:35:15.297Z,5.70
2023-04-29T17:37:32.697Z,6.13
2023-04-29T17:39:14.804Z,5.68
2023-04-29T17:41:17.014Z,5.30
2023-04-29T17:43:07.028Z,5.75
2023-04-29T17:49:18.586Z,5.50
2023-04-29T17:50:44.613Z,5.70
2023-04-29T17:52:13.596Z,6.28
2023-04-29T17:59:39.068Z,6.13
2023-04-29T18:01:22.178Z,6.45
2023-04-29T18:02:50.253Z,7.38
2023-04-29T18:04:44.889Z,6.47
2023-04-29T18:06:29.026Z,6.70
2023-04-29T18:08:06.980Z,6.95
2023-04-29T18:09:43.138Z,8.90
2023-04-29T18:11:57.157Z,8.30
2023-04-29T18:13:23.220Z,9.10
2023-04-29T18:17:18.887Z,9.38
2023-04-29T18:19:17.301Z,9.35
2023-04-29T18:20:53.986Z,9.35
2023-04-29T18:22:30.786Z,10.48
2023-04-29T18:23:54.161Z,11.70
2023-04-29T18:25:25.902Z,10.77
2023-04-29T18:27:04.181Z,13.63
2023-04-29T18:28:34.318Z,13.35
2023-04-29T18:30:01.224Z,12.85
2023-04-29T18:33:56.556Z,14.07
2023-04-29T18:35:38.388Z,14.15
2023-04-29T18:37:06.890Z,14.52
2023-04-29T18:38:34.509Z,15.35
2023-04-29T18:40:10.324Z,17.65
2023-04-29T18:41:46.867Z,17.15
2023-04-29T18:43:37.819Z,17.85
2023-04-29T18:45:04.951Z,19.42
2023-04-29T18:46:30.834Z,20.90
2023-04-29T18:48:17.315Z,20.70
2023-04-29T18:49:41.830Z,21.50
2023-04-29T18:51:28.248Z,22.08
2023-04-29T18:53:10.446Z,22.95
2023-04-29T18:54:41.677Z,24.02
2023-04-29T18:58:02.478Z,24.95
2023-04-29T18:59:31.686Z,24.23
2023-04-29T19:01:08.561Z,23.52
2023-04-29T19:02:35.730Z,24.25
2023-04-29T19:04:24.342Z,24.08
2023-04-29T19:06:15.596Z,25.30
2023-04-29T19:07:51.655Z,25.42
2023-04-29T19:09:16.700Z,25.75
2023-04-29T19:10:43.003Z,25.38
2023-04-29T19:12:47.656Z,25.42
2023-04-29T19:15:18.888Z,23.30
2023-04-29T19:16:56.920Z,23.77
2023-04-29T19:19:00.290Z,23.55
2023-04-29T19:20:28.097Z,23.70
2023-04-29T19:22:09.838Z,23.92
2023-04-29T19:23:46.191Z,25.42
2023-04-29T19:29:25.662Z,23.55
2023-04-29T19:30:48.980Z,25.10
2023-04-29T19:32:16.852Z,25.42
2023-04-29T19:34:08.419Z,25.48
2023-04-29T19:39:17.540Z,26.80
2023-04-29T19:40:42.729Z,27.20
2023-04-29T19:45:20.500Z,27.25
2023-04-29T19:47:04.109Z,27.50
2023-04-29T19:49:03.192Z,28.05
2023-04-29T19:51:22.889Z,28.92
2023-04-29T19:53:49.752Z,28.50
2023-04-29T19:55:20.613Z,29.95
2023-04-29T20:00:15.358Z,30.67
2023-04-29T20:02:02.137Z,33.25
2023-04-29T20:03:27.884Z,31.73
2023-04-29T20:05:21.130Z,33.05
2023-04-29T20:06:57.340Z,32.85
2023-04-29T20:08:28.443Z,33.58
2023-04-29T20:09:57.254Z,34.67
2023-04-29T20:11:53.187Z,32.30
2023-04-29T20:13:18.064Z,33.85
2023-04-29T20:14:46.377Z,35.63
2023-04-29T20:16:27.867Z,36.75
2023-04-29T20:17:59.759Z,35.07
2023-04-29T20:19:29.322Z,35.53
2023-04-29T20:21:16.892Z,34.42
2023-04-29T20:23:04.263Z,36.03
2023-04-29T20:24:27.224Z,36.17
2023-04-29T20:26:06.647Z,36.22
2023-04-29T20:28:11.795Z,34.70
2023-04-29T20:29:52.988Z,34.58
2023-04-29T20:31:24.689Z,34.67
2023-04-29T20:33:18.315Z,34.13
2023-04-29T20:36:50.018Z,33.00
2023-04-29T20:38:15.606Z,35.35
2023-04-29T20:40:13.696Z,33.88
2023-04-29T20:41:52.079Z,31.23
2023-04-29T20:43:26.924Z,33.30
2023-04-29T20:44:54.187Z,34.03
2023-04-29T20:46:20.315Z,31.42
2023-04-29T20:47:58.772Z,30.55
2023-04-29T20:49:40.123Z,31.45
2023-04-29T21:01:23.318Z,29.10
2023-04-29T21:03:14.827Z,28.45
2023-04-29T21:04:51.415Z,29.08
2023-04-29T21:06:18.293Z,29.52
2023-04-29T21:07:43.696Z,28.48
2023-04-29T21:09:06.820Z,27.75
2023-04-29T21:10:36.792Z,29.83
2023-04-29T21:15:13.998Z,27.85
2023-04-29T21:16:38.463Z,30.05
2023-04-29T21:21:58.942Z,29.40
2023-04-29T21:23:31.893Z,28.50
2023-04-29T21:25:02.870Z,27.58
2023-04-29T21:26:29.537Z,28.17
2023-04-29T21:28:17.013Z,28.27
2023-04-29T21:30:15.755Z,26.27
2023-04-29T21:32:41.341Z,26.30
2023-04-29T21:34:13.291Z,24.17
2023-04-29T21:37:16.793Z,23.67
2023-04-29T21:38:45.545Z,24.77
2023-04-29T21:40:19.060Z,23.10
2023-04-29T21:41:48.850Z,22.10
2023-04-29T21:43:18.561Z,23.05
2023-04-29T21:44:52.886Z,22.92
2023-04-29T21:46:18.833Z,22.90
2023-04-29T21:47:45.998Z,22.52
2023-04-29T21:49:08.795Z,22.50
2023-04-29T21:50:31.581Z,22.63
2023-04-29T21:51:54.158Z,23.45
2023-04-29T21:53:16.800Z,22.33
2023-04-29T21:54:39.903Z,21.60
2023-04-29T21:56:02.211Z,21.88
2023-04-29T21:57:35.554Z,21.92
2023-04-29T21:59:04.962Z,22.55
2023-04-29T22:00:33.452Z,20.60
2023-04-29T22:02:00.624Z,21.58
2023-04-29T22:03:23.235Z,21.60
2023-04-29T22:04:45.592Z,23.15
2023-04-29T22:06:10.431Z,20.83
2023-04-29T22:07:32.387Z,19.83
2023-04-29T22:08:54.913Z,19.73
2023-04-29T22:10:17.802Z,19.17
2023-04-29T22:11:50.326Z,18.27
2023-04-29T22:13:12.998Z,19.45
2023-04-29T22:14:38.331Z,19.23
2023-04-29T22:16:07.786Z,18.48
2023-04-29T22:17:33.826Z,18.45
2023-04-29T22:19:00.908Z,17.77
2023-04-29T22:20:34.669Z,17.25
2023-04-29T22:21:58.289Z,17.85
2023-04-29T22:23:22.899Z,17.83
2023-04-29T22:24:51.423Z,17.00
2023-04-29T22:26:14.190Z,18.45
2023-04-29T22:27:43.793Z,16.65
2023-04-29T22:29:11.898Z,16.65
2023-04-29T22:30:45.767Z,15.90
2023-04-29T22:32:08.640Z,15.20
2023-04-29T22:33:37.174Z,16.25
2023-04-29T22:35:01.422Z,16.05
2023-04-29T22:36:27.502Z,16.70
2023-04-29T22:37:49.208Z,16.20
2023-04-29T22:39:13.260Z,17.52
2023-04-29T22:40:55.767Z,16.83
2023-04-29T22:42:42.213Z,16.88
2023-04-29T22:44:06.842Z,17.10
2023-04-29T22:45:29.430Z,15.88
2023-04-29T22:46:52.319Z,16.00
2023-04-29T22:48:13.689Z,16.35
2023-04-29T22:49:36.597Z,15.68
2023-04-29T22:51:04.116Z,15.05
2023-04-29T22:52:27.179Z,15.85
2023-04-29T22:53:49.863Z,14.07
2023-04-29T22:55:11.344Z,14.50
2023-04-29T22:56:34.274Z,13.90
2023-04-29T22:57:55.701Z,13.55
2023-04-29T22:59:18.169Z,14.75
2023-04-29T23:00:42.276Z,14.80
2023-04-29T23:02:04.824Z,14.50
2023-04-29T23:03:27.761Z,14.90
2023-04-29T23:04:49.076Z,13.88
2023-04-29T23:06:15.501Z,14.43
2023-04-29T23:07:41.549Z,14.13
2023-04-29T23:09:12.555Z,13.05
2023-04-29T23:11:33.023Z,14.20
2023-04-29T23:13:18.267Z,13.57
2023-04-29T23:14:58.467Z,13.77
2023-04-29T23:16:37.826Z,14.00
2023-04-29T23:18:05.618Z,14.40
2023-04-29T23:19:38.567Z,13.60
2023-04-29T23:21:18.979Z,14.00
2023-04-29T23:22:42.826Z,14.23
2023-04-29T23:24:05.790Z,14.05
2023-04-29T23:25:28.374Z,15.23
2023-04-29T23:26:51.454Z,14.05
2023-04-29T23:28:14.298Z,14.05
2023-04-29T23:29:41.640Z,14.48
2023-04-29T23:31:04.526Z,13.63
2023-04-29T23:32:25.805Z,14.07
2023-04-29T23:33:48.903Z,14.07
2023-04-29T23:35:13.893Z,13.45
2023-04-29T23:36:40.802Z,14.05
2023-04-29T23:38:04.820Z,16.02
2023-04-29T23:39:27.582Z,14.25
2023-04-29T23:40:50.235Z,14.65
2023-04-29T23:42:28.131Z,14.32
2023-04-29T23:43:52.626Z,13.68
2023-04-29T23:45:15.655Z,14.93
2023-04-29T23:46:37.225Z,14.38
2023-04-29T23:48:01.356Z,14.55
2023-04-29T23:49:22.551Z,13.75
2023-04-29T23:50:44.869Z,15.65
2023-04-29T23:52:10.435Z,14.20
2023-04-29T23:53:33.104Z,14.32
2023-04-29T23:54:54.960Z,14.25
2023-04-29T23:56:40.525Z,15.25
2023-04-29T23:58:03.525Z,15.32
2023-04-29T23:59:24.904Z,13.63
